sensor_id;sensor_type;location;lat;lon;timestamp;P1;durP1;ratioP1;P2;durP2;ratioP2
6089;SDS011;3073;42.660;23.316;2023-06-14T00:01:44;16.60;;;8.17;;
6089;SDS011;3073;42.660;23.316;2023-06-14T00:04:12;16.87;;;7.83;;
6089;SDS011;3073;42.660;23.316;2023-06-14T00:06:41;16.93;;;7.23;;
6089;SDS011;3073;42.660;23.316;2023-06-14T00:09:10;18.17;;;8.10;;
6089;SDS011;3073;42.660;23.316;2023-06-14T00:11:37;17.17;;;7.70;;
6089;SDS011;3073;42.660;23.316;2023-06-14T00:14:04;17.47;;;7.23;;
6089;SDS011;3073;42.660;23.316;2023-06-14T00:16:31;14.90;;;7.10;;
6089;SDS011;3073;42.660;23.316;2023-06-14T00:19:00;14.33;;;6.60;;
6089;SDS011;3073;42.660;23.316;2023-06-14T00:21:28;15.03;;;7.00;;
6089;SDS011;3073;42.660;23.316;2023-06-14T00:23:55;13.50;;;6.70;;
6089;SDS011;3073;42.660;23.316;2023-06-14T00:26:22;17.20;;;6.07;;
6089;SDS011;3073;42.660;23.316;2023-06-14T00:28:52;12.53;;;6.10;;
6089;SDS011;3073;42.660;23.316;2023-06-14T00:31:20;14.30;;;6.30;;
6089;SDS011;3073;42.660;23.316;2023-06-14T00:33:47;14.73;;;6.63;;
6089;SDS011;3073;42.660;23.316;2023-06-14T00:36:15;14.10;;;6.63;;
6089;SDS011;3073;42.660;23.316;2023-06-14T00:38:42;13.40;;;5.53;;
6089;SDS011;3073;42.660;23.316;2023-06-14T00:41:08;20.97;;;6.20;;
6089;SDS011;3073;42.660;23.316;2023-06-14T00:43:35;13.30;;;5.70;;
6089;SDS011;3073;42.660;23.316;2023-06-14T00:46:02;11.50;;;5.50;;
6089;SDS011;3073;42.660;23.316;2023-06-14T00:48:29;12.70;;;5.77;;
6089;SDS011;3073;42.660;23.316;2023-06-14T00:50:57;13.50;;;5.87;;
6089;SDS011;3073;42.660;23.316;2023-06-14T00:53:28;12.10;;;5.97;;
6089;SDS011;3073;42.660;23.316;2023-06-14T00:55:56;13.80;;;5.37;;
6089;SDS011;3073;42.660;23.316;2023-06-14T00:58:23;11.00;;;5.47;;
6089;SDS011;3073;42.660;23.316;2023-06-14T01:00:50;12.57;;;5.50;;
6089;SDS011;3073;42.660;23.316;2023-06-14T01:03:17;12.63;;;5.90;;
6089;SDS011;3073;42.660;23.316;2023-06-14T01:05:46;12.83;;;6.23;;
6089;SDS011;3073;42.660;23.316;2023-06-14T01:08:15;15.90;;;6.80;;
6089;SDS011;3073;42.660;23.316;2023-06-14T01:10:53;14.07;;;6.10;;
6089;SDS011;3073;42.660;23.316;2023-06-14T01:13:32;16.57;;;6.20;;
6089;SDS011;3073;42.660;23.316;2023-06-14T01:16:00;12.80;;;5.97;;
6089;SDS011;3073;42.660;23.316;2023-06-14T01:18:28;12.97;;;5.87;;
6089;SDS011;3073;42.660;23.316;2023-06-14T01:20:55;20.00;;;6.00;;
6089;SDS011;3073;42.660;23.316;2023-06-14T01:23:24;12.90;;;5.60;;
6089;SDS011;3073;42.660;23.316;2023-06-14T01:25:58;12.87;;;6.67;;
6089;SDS011;3073;42.660;23.316;2023-06-14T01:28:27;14.07;;;6.13;;
6089;SDS011;3073;42.660;23.316;2023-06-14T01:30:58;11.77;;;6.00;;
6089;SDS011;3073;42.660;23.316;2023-06-14T01:33:29;17.70;;;6.30;;
6089;SDS011;3073;42.660;23.316;2023-06-14T01:35:57;13.37;;;6.60;;
6089;SDS011;3073;42.660;23.316;2023-06-14T01:38:26;12.50;;;5.53;;
6089;SDS011;3073;42.660;23.316;2023-06-14T01:40:56;12.17;;;5.70;;
6089;SDS011;3073;42.660;23.316;2023-06-14T01:43:25;13.53;;;6.20;;
6089;SDS011;3073;42.660;23.316;2023-06-14T01:45:53;16.60;;;5.50;;
6089;SDS011;3073;42.660;23.316;2023-06-14T01:48:21;12.20;;;6.20;;
6089;SDS011;3073;42.660;23.316;2023-06-14T01:50:48;10.40;;;4.90;;
6089;SDS011;3073;42.660;23.316;2023-06-14T01:53:16;11.53;;;5.57;;
6089;SDS011;3073;42.660;23.316;2023-06-14T01:55:44;13.47;;;5.10;;
6089;SDS011;3073;42.660;23.316;2023-06-14T01:58:13;11.47;;;5.07;;
6089;SDS011;3073;42.660;23.316;2023-06-14T02:00:41;9.90;;;4.40;;
6089;SDS011;3073;42.660;23.316;2023-06-14T02:03:10;10.93;;;4.73;;
6089;SDS011;3073;42.660;23.316;2023-06-14T02:05:38;11.43;;;4.93;;
6089;SDS011;3073;42.660;23.316;2023-06-14T02:08:05;11.67;;;4.70;;
6089;SDS011;3073;42.660;23.316;2023-06-14T02:10:32;10.90;;;5.10;;
6089;SDS011;3073;42.660;23.316;2023-06-14T02:13:01;11.50;;;4.80;;
6089;SDS011;3073;42.660;23.316;2023-06-14T02:15:27;13.10;;;5.50;;
6089;SDS011;3073;42.660;23.316;2023-06-14T02:17:59;12.03;;;5.47;;
6089;SDS011;3073;42.660;23.316;2023-06-14T02:20:27;11.60;;;5.17;;
6089;SDS011;3073;42.660;23.316;2023-06-14T02:22:54;11.37;;;5.93;;
6089;SDS011;3073;42.660;23.316;2023-06-14T02:25:21;10.40;;;4.90;;
6089;SDS011;3073;42.660;23.316;2023-06-14T02:27:47;15.37;;;5.70;;
6089;SDS011;3073;42.660;23.316;2023-06-14T02:30:16;12.10;;;5.50;;
6089;SDS011;3073;42.660;23.316;2023-06-14T02:32:43;11.83;;;5.50;;
6089;SDS011;3073;42.660;23.316;2023-06-14T02:35:10;14.23;;;5.40;;
6089;SDS011;3073;42.660;23.316;2023-06-14T02:37:38;12.60;;;4.90;;
6089;SDS011;3073;42.660;23.316;2023-06-14T02:40:05;11.67;;;5.30;;
6089;SDS011;3073;42.660;23.316;2023-06-14T02:42:34;11.13;;;5.27;;
6089;SDS011;3073;42.660;23.316;2023-06-14T02:45:01;9.80;;;4.87;;
6089;SDS011;3073;42.660;23.316;2023-06-14T02:47:30;14.03;;;6.40;;
6089;SDS011;3073;42.660;23.316;2023-06-14T02:49:57;13.77;;;6.40;;
6089;SDS011;3073;42.660;23.316;2023-06-14T02:52:24;12.53;;;6.33;;
6089;SDS011;3073;42.660;23.316;2023-06-14T02:54:51;14.40;;;6.33;;
6089;SDS011;3073;42.660;23.316;2023-06-14T02:57:19;17.43;;;5.50;;
6089;SDS011;3073;42.660;23.316;2023-06-14T02:59:46;13.70;;;6.00;;
6089;SDS011;3073;42.660;23.316;2023-06-14T03:02:13;16.87;;;6.00;;
6089;SDS011;3073;42.660;23.316;2023-06-14T03:04:41;13.33;;;6.63;;
6089;SDS011;3073;42.660;23.316;2023-06-14T03:07:09;10.80;;;5.60;;
6089;SDS011;3073;42.660;23.316;2023-06-14T03:09:37;14.40;;;5.77;;
6089;SDS011;3073;42.660;23.316;2023-06-14T03:12:05;12.83;;;5.70;;
6089;SDS011;3073;42.660;23.316;2023-06-14T03:14:34;13.73;;;6.60;;
6089;SDS011;3073;42.660;23.316;2023-06-14T03:17:01;12.40;;;5.70;;
6089;SDS011;3073;42.660;23.316;2023-06-14T03:19:30;12.90;;;5.87;;
6089;SDS011;3073;42.660;23.316;2023-06-14T03:21:58;12.33;;;5.90;;
6089;SDS011;3073;42.660;23.316;2023-06-14T03:24:25;12.13;;;6.00;;
6089;SDS011;3073;42.660;23.316;2023-06-14T03:26:53;12.70;;;5.73;;
6089;SDS011;3073;42.660;23.316;2023-06-14T03:29:21;12.00;;;6.37;;
6089;SDS011;3073;42.660;23.316;2023-06-14T03:31:58;14.47;;;6.37;;
6089;SDS011;3073;42.660;23.316;2023-06-14T03:34:26;11.77;;;5.90;;
6089;SDS011;3073;42.660;23.316;2023-06-14T03:36:52;11.37;;;5.47;;
6089;SDS011;3073;42.660;23.316;2023-06-14T03:39:21;11.30;;;5.30;;
6089;SDS011;3073;42.660;23.316;2023-06-14T03:41:47;11.33;;;5.57;;
6089;SDS011;3073;42.660;23.316;2023-06-14T03:44:15;14.03;;;6.30;;
6089;SDS011;3073;42.660;23.316;2023-06-14T03:46:44;13.13;;;6.90;;
6089;SDS011;3073;42.660;23.316;2023-06-14T03:49:11;13.50;;;6.67;;
6089;SDS011;3073;42.660;23.316;2023-06-14T03:51:38;13.07;;;6.00;;
6089;SDS011;3073;42.660;23.316;2023-06-14T03:54:06;13.90;;;6.57;;
6089;SDS011;3073;42.660;23.316;2023-06-14T03:56:34;13.57;;;6.40;;
6089;SDS011;3073;42.660;23.316;2023-06-14T03:59:01;12.20;;;6.13;;
6089;SDS011;3073;42.660;23.316;2023-06-14T04:01:28;11.80;;;6.33;;
6089;SDS011;3073;42.660;23.316;2023-06-14T04:03:56;16.90;;;6.60;;
6089;SDS011;3073;42.660;23.316;2023-06-14T04:06:23;13.57;;;6.67;;
6089;SDS011;3073;42.660;23.316;2023-06-14T04:08:57;11.90;;;6.10;;
6089;SDS011;3073;42.660;23.316;2023-06-14T04:11:29;12.73;;;6.50;;
6089;SDS011;3073;42.660;23.316;2023-06-14T04:13:57;12.70;;;6.30;;
6089;SDS011;3073;42.660;23.316;2023-06-14T04:16:24;13.27;;;7.00;;
6089;SDS011;3073;42.660;23.316;2023-06-14T04:18:54;15.13;;;6.60;;
6089;SDS011;3073;42.660;23.316;2023-06-14T04:21:24;16.30;;;6.20;;
6089;SDS011;3073;42.660;23.316;2023-06-14T04:23:53;15.37;;;5.97;;
6089;SDS011;3073;42.660;23.316;2023-06-14T04:26:20;11.80;;;6.37;;
6089;SDS011;3073;42.660;23.316;2023-06-14T04:28:48;15.00;;;7.00;;
6089;SDS011;3073;42.660;23.316;2023-06-14T04:31:17;16.90;;;7.30;;
6089;SDS011;3073;42.660;23.316;2023-06-14T04:33:44;13.23;;;6.63;;
6089;SDS011;3073;42.660;23.316;2023-06-14T04:36:11;13.30;;;6.53;;
6089;SDS011;3073;42.660;23.316;2023-06-14T04:38:39;14.43;;;7.20;;
6089;SDS011;3073;42.660;23.316;2023-06-14T04:41:06;12.93;;;6.10;;
6089;SDS011;3073;42.660;23.316;2023-06-14T04:43:36;15.07;;;7.70;;
6089;SDS011;3073;42.660;23.316;2023-06-14T04:46:04;16.93;;;7.67;;
6089;SDS011;3073;42.660;23.316;2023-06-14T04:48:36;13.20;;;6.83;;
6089;SDS011;3073;42.660;23.316;2023-06-14T04:51:04;16.60;;;8.50;;
6089;SDS011;3073;42.660;23.316;2023-06-14T04:53:31;14.73;;;7.07;;
6089;SDS011;3073;42.660;23.316;2023-06-14T04:55:59;20.10;;;9.03;;
6089;SDS011;3073;42.660;23.316;2023-06-14T04:58:26;17.33;;;6.83;;
6089;SDS011;3073;42.660;23.316;2023-06-14T05:00:53;16.70;;;7.97;;
6089;SDS011;3073;42.660;23.316;2023-06-14T05:03:21;17.33;;;7.63;;
6089;SDS011;3073;42.660;23.316;2023-06-14T05:05:50;14.70;;;7.57;;
6089;SDS011;3073;42.660;23.316;2023-06-14T05:08:18;23.23;;;8.30;;
6089;SDS011;3073;42.660;23.316;2023-06-14T05:10:45;19.33;;;7.87;;
6089;SDS011;3073;42.660;23.316;2023-06-14T05:13:11;17.43;;;7.73;;
6089;SDS011;3073;42.660;23.316;2023-06-14T05:15:38;14.57;;;8.07;;
6089;SDS011;3073;42.660;23.316;2023-06-14T05:18:05;15.80;;;8.30;;
6089;SDS011;3073;42.660;23.316;2023-06-14T05:20:33;14.50;;;8.27;;
6089;SDS011;3073;42.660;23.316;2023-06-14T05:23:03;15.40;;;8.00;;
6089;SDS011;3073;42.660;23.316;2023-06-14T05:25:30;17.37;;;8.10;;
6089;SDS011;3073;42.660;23.316;2023-06-14T05:27:57;18.17;;;8.67;;
6089;SDS011;3073;42.660;23.316;2023-06-14T05:30:24;15.87;;;9.10;;
6089;SDS011;3073;42.660;23.316;2023-06-14T05:32:51;16.13;;;8.23;;
6089;SDS011;3073;42.660;23.316;2023-06-14T05:35:18;17.23;;;8.40;;
6089;SDS011;3073;42.660;23.316;2023-06-14T05:37:47;18.97;;;9.40;;
6089;SDS011;3073;42.660;23.316;2023-06-14T05:40:15;21.73;;;8.90;;
6089;SDS011;3073;42.660;23.316;2023-06-14T05:42:43;18.37;;;10.00;;
6089;SDS011;3073;42.660;23.316;2023-06-14T05:45:09;19.70;;;9.57;;
6089;SDS011;3073;42.660;23.316;2023-06-14T05:47:36;17.40;;;9.47;;
6089;SDS011;3073;42.660;23.316;2023-06-14T05:50:03;17.47;;;8.90;;
6089;SDS011;3073;42.660;23.316;2023-06-14T05:52:31;16.73;;;8.97;;
6089;SDS011;3073;42.660;23.316;2023-06-14T05:54:58;14.27;;;8.40;;
6089;SDS011;3073;42.660;23.316;2023-06-14T05:57:27;16.63;;;8.10;;
6089;SDS011;3073;42.660;23.316;2023-06-14T05:59:54;18.60;;;9.57;;
6089;SDS011;3073;42.660;23.316;2023-06-14T06:02:21;15.53;;;9.33;;
6089;SDS011;3073;42.660;23.316;2023-06-14T06:04:47;16.73;;;9.67;;
6089;SDS011;3073;42.660;23.316;2023-06-14T06:07:14;14.27;;;8.23;;
6089;SDS011;3073;42.660;23.316;2023-06-14T06:09:41;14.80;;;9.03;;
6089;SDS011;3073;42.660;23.316;2023-06-14T06:12:10;17.70;;;9.60;;
6089;SDS011;3073;42.660;23.316;2023-06-14T06:14:38;17.53;;;9.23;;
6089;SDS011;3073;42.660;23.316;2023-06-14T06:17:05;15.43;;;9.30;;
6089;SDS011;3073;42.660;23.316;2023-06-14T06:19:32;18.37;;;10.13;;
6089;SDS011;3073;42.660;23.316;2023-06-14T06:21:58;17.80;;;10.13;;
6089;SDS011;3073;42.660;23.316;2023-06-14T06:24:25;25.43;;;10.07;;
6089;SDS011;3073;42.660;23.316;2023-06-14T06:26:52;21.00;;;9.53;;
6089;SDS011;3073;42.660;23.316;2023-06-14T06:29:19;20.57;;;10.77;;
6089;SDS011;3073;42.660;23.316;2023-06-14T06:31:48;20.70;;;11.40;;
6089;SDS011;3073;42.660;23.316;2023-06-14T06:34:15;20.13;;;10.60;;
6089;SDS011;3073;42.660;23.316;2023-06-14T06:36:41;20.17;;;10.63;;
6089;SDS011;3073;42.660;23.316;2023-06-14T06:39:08;19.67;;;10.73;;
6089;SDS011;3073;42.660;23.316;2023-06-14T06:41:37;21.73;;;11.40;;
6089;SDS011;3073;42.660;23.316;2023-06-14T06:44:05;21.20;;;11.63;;
6089;SDS011;3073;42.660;23.316;2023-06-14T06:46:31;21.90;;;10.40;;
6089;SDS011;3073;42.660;23.316;2023-06-14T06:49:00;21.50;;;11.20;;
6089;SDS011;3073;42.660;23.316;2023-06-14T06:51:27;22.40;;;11.70;;
6089;SDS011;3073;42.660;23.316;2023-06-14T06:53:53;22.83;;;10.57;;
6089;SDS011;3073;42.660;23.316;2023-06-14T06:56:21;18.63;;;10.17;;
6089;SDS011;3073;42.660;23.316;2023-06-14T06:58:49;21.57;;;12.63;;
6089;SDS011;3073;42.660;23.316;2023-06-14T07:01:15;20.80;;;11.77;;
6089;SDS011;3073;42.660;23.316;2023-06-14T07:03:44;18.27;;;9.50;;
6089;SDS011;3073;42.660;23.316;2023-06-14T07:06:12;23.27;;;11.00;;
6089;SDS011;3073;42.660;23.316;2023-06-14T07:08:39;23.30;;;11.80;;
6089;SDS011;3073;42.660;23.316;2023-06-14T07:11:06;21.37;;;11.47;;
6089;SDS011;3073;42.660;23.316;2023-06-14T07:13:33;24.33;;;13.40;;
6089;SDS011;3073;42.660;23.316;2023-06-14T07:16:00;22.97;;;12.53;;
6089;SDS011;3073;42.660;23.316;2023-06-14T07:18:27;21.30;;;10.40;;
6089;SDS011;3073;42.660;23.316;2023-06-14T07:20:55;17.37;;;10.57;;
6089;SDS011;3073;42.660;23.316;2023-06-14T07:23:24;20.37;;;10.40;;
6089;SDS011;3073;42.660;23.316;2023-06-14T07:25:51;17.40;;;9.27;;
6089;SDS011;3073;42.660;23.316;2023-06-14T07:28:17;18.13;;;10.57;;
6089;SDS011;3073;42.660;23.316;2023-06-14T07:30:44;16.37;;;8.50;;
6089;SDS011;3073;42.660;23.316;2023-06-14T07:33:11;16.37;;;9.27;;
6089;SDS011;3073;42.660;23.316;2023-06-14T07:35:38;15.77;;;9.57;;
6089;SDS011;3073;42.660;23.316;2023-06-14T07:38:05;14.90;;;8.90;;
6089;SDS011;3073;42.660;23.316;2023-06-14T07:40:34;14.70;;;9.50;;
6089;SDS011;3073;42.660;23.316;2023-06-14T07:43:00;15.07;;;9.17;;
6089;SDS011;3073;42.660;23.316;2023-06-14T07:45:28;15.00;;;9.20;;
6089;SDS011;3073;42.660;23.316;2023-06-14T07:47:57;21.97;;;9.30;;
6089;SDS011;3073;42.660;23.316;2023-06-14T07:50:23;16.93;;;8.87;;
6089;SDS011;3073;42.660;23.316;2023-06-14T07:52:50;16.07;;;9.13;;
6089;SDS011;3073;42.660;23.316;2023-06-14T07:55:17;15.63;;;8.65;;
6089;SDS011;3073;42.660;23.316;2023-06-14T07:57:48;14.93;;;9.43;;
6089;SDS011;3073;42.660;23.316;2023-06-14T08:00:18;15.10;;;9.50;;
6089;SDS011;3073;42.660;23.316;2023-06-14T08:02:45;14.60;;;8.93;;
6089;SDS011;3073;42.660;23.316;2023-06-14T08:05:12;15.83;;;9.63;;
6089;SDS011;3073;42.660;23.316;2023-06-14T08:07:39;17.60;;;8.77;;
6089;SDS011;3073;42.660;23.316;2023-06-14T08:10:07;19.80;;;11.40;;
6089;SDS011;3073;42.660;23.316;2023-06-14T08:12:34;24.20;;;12.23;;
6089;SDS011;3073;42.660;23.316;2023-06-14T08:15:05;17.53;;;10.77;;
6089;SDS011;3073;42.660;23.316;2023-06-14T08:17:32;17.73;;;10.40;;
6089;SDS011;3073;42.660;23.316;2023-06-14T08:19:59;16.13;;;9.97;;
6089;SDS011;3073;42.660;23.316;2023-06-14T08:22:26;15.73;;;10.63;;
6089;SDS011;3073;42.660;23.316;2023-06-14T08:24:56;16.33;;;10.60;;
6089;SDS011;3073;42.660;23.316;2023-06-14T08:27:23;20.10;;;9.67;;
6089;SDS011;3073;42.660;23.316;2023-06-14T08:29:51;19.33;;;10.10;;
6089;SDS011;3073;42.660;23.316;2023-06-14T08:32:19;19.63;;;9.93;;
6089;SDS011;3073;42.660;23.316;2023-06-14T08:34:46;18.30;;;11.03;;
6089;SDS011;3073;42.660;23.316;2023-06-14T08:37:13;16.77;;;10.40;;
6089;SDS011;3073;42.660;23.316;2023-06-14T08:39:40;19.20;;;10.27;;
6089;SDS011;3073;42.660;23.316;2023-06-14T08:42:07;22.67;;;10.47;;
6089;SDS011;3073;42.660;23.316;2023-06-14T08:44:36;15.10;;;9.27;;
6089;SDS011;3073;42.660;23.316;2023-06-14T08:47:03;16.80;;;10.60;;
6089;SDS011;3073;42.660;23.316;2023-06-14T08:49:33;16.80;;;9.40;;
6089;SDS011;3073;42.660;23.316;2023-06-14T08:52:05;17.00;;;9.93;;
6089;SDS011;3073;42.660;23.316;2023-06-14T08:54:35;15.90;;;9.97;;
6089;SDS011;3073;42.660;23.316;2023-06-14T08:57:09;18.20;;;11.07;;
6089;SDS011;3073;42.660;23.316;2023-06-14T08:59:41;17.60;;;10.40;;
6089;SDS011;3073;42.660;23.316;2023-06-14T09:02:14;22.13;;;12.03;;
6089;SDS011;3073;42.660;23.316;2023-06-14T09:04:49;22.10;;;11.57;;
6089;SDS011;3073;42.660;23.316;2023-06-14T09:07:16;16.23;;;10.53;;
6089;SDS011;3073;42.660;23.316;2023-06-14T09:09:43;22.33;;;11.17;;
6089;SDS011;3073;42.660;23.316;2023-06-14T09:12:10;20.50;;;10.50;;
6089;SDS011;3073;42.660;23.316;2023-06-14T09:14:38;17.40;;;10.80;;
6089;SDS011;3073;42.660;23.316;2023-06-14T09:17:07;16.53;;;9.17;;
6089;SDS011;3073;42.660;23.316;2023-06-14T09:19:34;15.63;;;10.37;;
6089;SDS011;3073;42.660;23.316;2023-06-14T09:22:04;14.13;;;9.70;;
6089;SDS011;3073;42.660;23.316;2023-06-14T09:24:31;17.40;;;10.20;;
6089;SDS011;3073;42.660;23.316;2023-06-14T09:26:58;19.33;;;10.10;;
6089;SDS011;3073;42.660;23.316;2023-06-14T09:29:25;17.37;;;10.00;;
6089;SDS011;3073;42.660;23.316;2023-06-14T09:31:53;13.03;;;8.70;;
6089;SDS011;3073;42.660;23.316;2023-06-14T09:34:20;15.75;;;9.88;;
6089;SDS011;3073;42.660;23.316;2023-06-14T09:36:48;20.10;;;9.80;;
6089;SDS011;3073;42.660;23.316;2023-06-14T09:39:17;19.92;;;9.50;;
6089;SDS011;3073;42.660;23.316;2023-06-14T09:41:44;11.68;;;6.95;;
6089;SDS011;3073;42.660;23.316;2023-06-14T09:44:11;13.63;;;8.77;;
6089;SDS011;3073;42.660;23.316;2023-06-14T09:46:38;15.73;;;9.32;;
6089;SDS011;3073;42.660;23.316;2023-06-14T09:49:05;14.00;;;9.10;;
6089;SDS011;3073;42.660;23.316;2023-06-14T09:51:34;12.57;;;8.73;;
6089;SDS011;3073;42.660;23.316;2023-06-14T09:54:06;15.38;;;10.30;;
6089;SDS011;3073;42.660;23.316;2023-06-14T09:56:37;20.15;;;9.15;;
6089;SDS011;3073;42.660;23.316;2023-06-14T09:59:06;16.58;;;10.02;;
6089;SDS011;3073;42.660;23.316;2023-06-14T10:01:39;16.42;;;8.93;;
6089;SDS011;3073;42.660;23.316;2023-06-14T10:04:09;15.55;;;8.80;;
6089;SDS011;3073;42.660;23.316;2023-06-14T10:06:37;13.25;;;8.52;;
6089;SDS011;3073;42.660;23.316;2023-06-14T10:09:07;17.00;;;9.60;;
6089;SDS011;3073;42.660;23.316;2023-06-14T10:11:41;13.20;;;8.50;;
6089;SDS011;3073;42.660;23.316;2023-06-14T10:14:10;13.13;;;9.18;;
6089;SDS011;3073;42.660;23.316;2023-06-14T10:16:39;12.48;;;8.57;;
6089;SDS011;3073;42.660;23.316;2023-06-14T10:19:13;14.32;;;9.48;;
6089;SDS011;3073;42.660;23.316;2023-06-14T10:21:49;16.17;;;9.80;;
6089;SDS011;3073;42.660;23.316;2023-06-14T10:24:24;12.32;;;8.15;;
6089;SDS011;3073;42.660;23.316;2023-06-14T10:26:58;13.88;;;9.02;;
6089;SDS011;3073;42.660;23.316;2023-06-14T10:29:26;12.70;;;9.23;;
6089;SDS011;3073;42.660;23.316;2023-06-14T10:31:57;17.98;;;8.25;;
6089;SDS011;3073;42.660;23.316;2023-06-14T10:34:25;19.38;;;10.07;;
6089;SDS011;3073;42.660;23.316;2023-06-14T10:37:00;13.68;;;9.32;;
6089;SDS011;3073;42.660;23.316;2023-06-14T10:39:29;14.30;;;9.63;;
6089;SDS011;3073;42.660;23.316;2023-06-14T10:42:04;13.70;;;9.77;;
6089;SDS011;3073;42.660;23.316;2023-06-14T10:44:42;14.35;;;9.88;;
6089;SDS011;3073;42.660;23.316;2023-06-14T10:47:11;19.83;;;10.65;;
6089;SDS011;3073;42.660;23.316;2023-06-14T10:49:49;17.65;;;9.15;;
6089;SDS011;3073;42.660;23.316;2023-06-14T10:52:21;16.20;;;9.07;;
6089;SDS011;3073;42.660;23.316;2023-06-14T10:54:55;17.58;;;9.75;;
6089;SDS011;3073;42.660;23.316;2023-06-14T10:57:32;16.38;;;9.20;;
6089;SDS011;3073;42.660;23.316;2023-06-14T11:00:00;15.32;;;10.05;;
6089;SDS011;3073;42.660;23.316;2023-06-14T11:02:48;17.33;;;9.50;;
6089;SDS011;3073;42.660;23.316;2023-06-14T11:05:50;16.65;;;10.20;;
6089;SDS011;3073;42.660;23.316;2023-06-14T11:08:27;13.38;;;9.05;;
6089;SDS011;3073;42.660;23.316;2023-06-14T11:11:00;15.63;;;9.18;;
6089;SDS011;3073;42.660;23.316;2023-06-14T11:13:33;11.45;;;8.27;;
6089;SDS011;3073;42.660;23.316;2023-06-14T11:16:03;13.25;;;9.32;;
6089;SDS011;3073;42.660;23.316;2023-06-14T11:18:37;13.45;;;8.80;;
6089;SDS011;3073;42.660;23.316;2023-06-14T11:21:03;12.10;;;9.02;;
6089;SDS011;3073;42.660;23.316;2023-06-14T11:23:30;18.13;;;8.90;;
6089;SDS011;3073;42.660;23.316;2023-06-14T11:25:57;11.75;;;7.88;;
6089;SDS011;3073;42.660;23.316;2023-06-14T11:28:24;13.48;;;8.23;;
6089;SDS011;3073;42.660;23.316;2023-06-14T11:31:00;12.73;;;9.25;;
6089;SDS011;3073;42.660;23.316;2023-06-14T11:33:27;15.05;;;8.82;;
6089;SDS011;3073;42.660;23.316;2023-06-14T11:35:54;15.63;;;9.38;;
6089;SDS011;3073;42.660;23.316;2023-06-14T11:38:21;13.43;;;8.20;;
6089;SDS011;3073;42.660;23.316;2023-06-14T11:40:48;16.30;;;9.00;;
6089;SDS011;3073;42.660;23.316;2023-06-14T11:43:16;14.73;;;8.57;;
6089;SDS011;3073;42.660;23.316;2023-06-14T11:45:42;13.70;;;9.32;;
6089;SDS011;3073;42.660;23.316;2023-06-14T11:48:10;12.18;;;8.13;;
6089;SDS011;3073;42.660;23.316;2023-06-14T11:50:37;12.52;;;8.60;;
6089;SDS011;3073;42.660;23.316;2023-06-14T11:53:04;17.05;;;8.77;;
6089;SDS011;3073;42.660;23.316;2023-06-14T11:55:35;10.73;;;7.00;;
6089;SDS011;3073;42.660;23.316;2023-06-14T11:58:03;13.77;;;9.23;;
6089;SDS011;3073;42.660;23.316;2023-06-14T12:00:30;10.63;;;7.03;;
6089;SDS011;3073;42.660;23.316;2023-06-14T12:02:57;10.82;;;6.95;;
6089;SDS011;3073;42.660;23.316;2023-06-14T12:05:26;9.27;;;6.57;;
6089;SDS011;3073;42.660;23.316;2023-06-14T12:07:58;10.90;;;6.70;;
6089;SDS011;3073;42.660;23.316;2023-06-14T12:10:25;10.82;;;6.95;;
6089;SDS011;3073;42.660;23.316;2023-06-14T12:12:56;12.20;;;7.18;;
6089;SDS011;3073;42.660;23.316;2023-06-14T12:15:24;11.48;;;7.22;;
6089;SDS011;3073;42.660;23.316;2023-06-14T12:17:54;9.85;;;6.95;;
6089;SDS011;3073;42.660;23.316;2023-06-14T12:20:20;12.75;;;6.57;;
6089;SDS011;3073;42.660;23.316;2023-06-14T12:22:51;10.90;;;7.00;;
6089;SDS011;3073;42.660;23.316;2023-06-14T12:25:26;11.13;;;6.93;;
6089;SDS011;3073;42.660;23.316;2023-06-14T12:27:56;10.82;;;6.40;;
6089;SDS011;3073;42.660;23.316;2023-06-14T12:30:22;10.45;;;5.45;;
6089;SDS011;3073;42.660;23.316;2023-06-14T12:32:49;12.45;;;6.68;;
6089;SDS011;3073;42.660;23.316;2023-06-14T12:35:16;15.25;;;8.55;;
6089;SDS011;3073;42.660;23.316;2023-06-14T12:37:44;10.35;;;6.30;;
6089;SDS011;3073;42.660;23.316;2023-06-14T12:40:12;10.95;;;6.32;;
6089;SDS011;3073;42.660;23.316;2023-06-14T12:42:39;10.90;;;6.57;;
6089;SDS011;3073;42.660;23.316;2023-06-14T12:45:07;11.20;;;6.40;;
6089;SDS011;3073;42.660;23.316;2023-06-14T12:47:34;10.97;;;7.10;;
6089;SDS011;3073;42.660;23.316;2023-06-14T12:50:03;17.30;;;7.30;;
6089;SDS011;3073;42.660;23.316;2023-06-14T12:52:30;12.80;;;6.70;;
6089;SDS011;3073;42.660;23.316;2023-06-14T12:55:01;12.23;;;7.27;;
6089;SDS011;3073;42.660;23.316;2023-06-14T12:57:30;10.30;;;6.90;;
6089;SDS011;3073;42.660;23.316;2023-06-14T12:59:57;14.73;;;7.40;;
6089;SDS011;3073;42.660;23.316;2023-06-14T13:02:25;11.00;;;6.20;;
6089;SDS011;3073;42.660;23.316;2023-06-14T13:04:52;14.30;;;6.87;;
6089;SDS011;3073;42.660;23.316;2023-06-14T13:07:19;12.20;;;7.33;;
6089;SDS011;3073;42.660;23.316;2023-06-14T13:09:46;12.53;;;7.00;;
6089;SDS011;3073;42.660;23.316;2023-06-14T13:12:13;13.97;;;7.70;;
6089;SDS011;3073;42.660;23.316;2023-06-14T13:14:41;14.67;;;8.70;;
6089;SDS011;3073;42.660;23.316;2023-06-14T13:17:08;14.80;;;8.23;;
6089;SDS011;3073;42.660;23.316;2023-06-14T13:19:35;12.80;;;7.70;;
6089;SDS011;3073;42.660;23.316;2023-06-14T13:22:02;18.40;;;8.90;;
6089;SDS011;3073;42.660;23.316;2023-06-14T13:24:29;15.40;;;8.77;;
6089;SDS011;3073;42.660;23.316;2023-06-14T13:26:56;16.73;;;9.77;;
6089;SDS011;3073;42.660;23.316;2023-06-14T13:29:23;15.90;;;8.07;;
6089;SDS011;3073;42.660;23.316;2023-06-14T13:31:52;19.53;;;8.33;;
6089;SDS011;3073;42.660;23.316;2023-06-14T13:34:19;18.13;;;12.40;;
6089;SDS011;3073;42.660;23.316;2023-06-14T13:36:46;18.83;;;13.23;;
6089;SDS011;3073;42.660;23.316;2023-06-14T13:39:12;21.37;;;8.80;;
6089;SDS011;3073;42.660;23.316;2023-06-14T13:41:39;20.63;;;8.60;;
6089;SDS011;3073;42.660;23.316;2023-06-14T13:44:06;19.10;;;8.77;;
6089;SDS011;3073;42.660;23.316;2023-06-14T13:46:33;17.27;;;8.40;;
6089;SDS011;3073;42.660;23.316;2023-06-14T13:49:01;17.87;;;8.20;;
6089;SDS011;3073;42.660;23.316;2023-06-14T13:51:30;21.20;;;9.67;;
6089;SDS011;3073;42.660;23.316;2023-06-14T13:53:57;20.73;;;9.50;;
6089;SDS011;3073;42.660;23.316;2023-06-14T13:56:24;23.93;;;10.10;;
6089;SDS011;3073;42.660;23.316;2023-06-14T13:58:51;21.93;;;9.83;;
6089;SDS011;3073;42.660;23.316;2023-06-14T14:01:18;21.43;;;11.23;;
6089;SDS011;3073;42.660;23.316;2023-06-14T14:03:46;23.90;;;10.73;;
6089;SDS011;3073;42.660;23.316;2023-06-14T14:06:14;21.50;;;9.73;;
6089;SDS011;3073;42.660;23.316;2023-06-14T14:08:41;19.57;;;8.70;;
6089;SDS011;3073;42.660;23.316;2023-06-14T14:11:08;17.90;;;7.53;;
6089;SDS011;3073;42.660;23.316;2023-06-14T14:13:35;18.07;;;7.93;;
6089;SDS011;3073;42.660;23.316;2023-06-14T14:16:03;15.70;;;7.77;;
6089;SDS011;3073;42.660;23.316;2023-06-14T14:18:31;15.17;;;7.23;;
6089;SDS011;3073;42.660;23.316;2023-06-14T14:21:01;15.20;;;6.40;;
6089;SDS011;3073;42.660;23.316;2023-06-14T14:23:30;16.73;;;7.13;;
6089;SDS011;3073;42.660;23.316;2023-06-14T14:25:57;17.27;;;7.93;;
6089;SDS011;3073;42.660;23.316;2023-06-14T14:28:26;24.00;;;6.70;;
6089;SDS011;3073;42.660;23.316;2023-06-14T14:30:52;13.37;;;6.10;;
6089;SDS011;3073;42.660;23.316;2023-06-14T14:33:20;11.33;;;5.00;;
6089;SDS011;3073;42.660;23.316;2023-06-14T14:35:47;16.40;;;7.17;;
6089;SDS011;3073;42.660;23.316;2023-06-14T14:38:14;12.97;;;5.80;;
6089;SDS011;3073;42.660;23.316;2023-06-14T14:40:43;15.90;;;6.40;;
6089;SDS011;3073;42.660;23.316;2023-06-14T14:43:10;11.97;;;5.27;;
6089;SDS011;3073;42.660;23.316;2023-06-14T14:45:37;15.37;;;7.60;;
6089;SDS011;3073;42.660;23.316;2023-06-14T14:48:04;15.17;;;7.87;;
6089;SDS011;3073;42.660;23.316;2023-06-14T14:50:32;20.10;;;7.20;;
6089;SDS011;3073;42.660;23.316;2023-06-14T14:52:59;14.67;;;7.80;;